Time;durP1;ratioP1;P1;durP2;ratioP2;P2;SDS_P1;SDS_P2;PMS_P1;PMS_P2;Temp;Humidity;BMP_temperature;BMP_pressure;BME280_temperature;BME280_humidity;BME280_pressure;Samples;Min_cycle;Max_cycle;Signal;HPM_P1;HPM_P2
2022/05/01 00:01:46;;;;;;;13.15;8.63;;;358.90;2329.60;;;;;;4886443;29;20044;-80
2022/05/01 00:04:12;;;;;;;15.85;8.35;;;358.90;2329.60;;;;;;4881337;29;20056;-83
2022/05/01 00:06:38;;;;;;;18.85;9.73;;;359.00;2329.60;;;;;;4888923;29;20028;-83
2022/05/01 00:09:05;;;;;;;13.63;7.97;;;359.00;2329.60;;;;;;4916043;29;20062;-80
2022/05/01 00:11:32;;;;;;;10.23;6.53;;;359.10;2329.60;;;;;;4914925;29;20024;-81
2022/05/01 00:13:58;;;;;;;11.90;6.68;;;358.40;2329.60;;;;;;4917258;29;20442;-81
2022/05/01 00:16:25;;;;;;;11.32;6.03;;;333.60;2329.60;;;;;;4936920;29;20032;-81
2022/05/01 00:18:51;;;;;;;10.70;6.05;;;358.70;2329.60;;;;;;4921951;29;20048;-82
2022/05/01 00:21:17;;;;;;;10.18;6.07;;;358.70;2329.60;;;;;;4934385;29;20478;-81
2022/05/01 00:23:45;;;;;;;11.82;6.30;;;358.80;2329.60;;;;;;4901996;29;20088;-80
2022/05/01 00:26:12;;;;;;;8.25;6.15;;;358.70;2329.60;;;;;;4899970;29;20035;-81
2022/05/01 00:28:41;;;;;;;8.98;5.57;;;358.70;2329.60;;;;;;4898298;29;20024;-79
2022/05/01 00:31:08;;;;;;;9.88;6.32;;;358.70;2329.60;;;;;;4881856;29;20543;-81
2022/05/01 00:36:27;;;;;;;9.43;4.93;;;358.80;2329.60;;;;;;4901373;29;20088;-82
2022/05/01 00:38:57;;;;;;;;;;;358.90;2329.60;;;;;;4885654;29;20036;-82
2022/05/01 00:41:26;;;;;;;11.18;5.70;;;358.60;2329.60;;;;;;4884810;29;19947;-81
2022/05/01 00:44:03;;;;;;;7.28;4.60;;;358.40;2329.60;;;;;;4884687;29;20020;-80
2022/05/01 00:46:34;;;;;;;6.97;4.78;;;333.60;2329.60;;;;;;4900600;29;20028;-81
2022/05/01 00:49:05;;;;;;;12.80;6.20;;;333.60;2329.60;;;;;;4884949;29;20032;-79
2022/05/01 00:51:41;;;;;;;11.48;7.65;;;333.70;2329.60;;;;;;4884391;29;20032;-79
2022/05/01 00:54:07;;;;;;;10.10;7.22;;;333.60;2329.60;;;;;;4885088;29;20028;-80
2022/05/01 00:56:40;;;;;;;12.95;7.53;;;333.60;2329.60;;;;;;4884466;29;20032;-81
2022/05/01 00:59:08;;;;;;;11.00;7.15;;;333.70;2329.60;;;;;;4884886;29;20032;-82
2022/05/01 01:01:35;;;;;;;10.40;5.80;;;333.70;2329.60;;;;;;4883756;29;20056;-80
2022/05/01 01:04:04;;;;;;;10.80;5.90;;;358.60;2329.60;;;;;;4885019;29;20100;-82
2022/05/01 01:06:30;;;;;;;7.45;4.85;;;333.70;2329.60;;;;;;4883689;29;20100;-81
2022/05/01 01:09:09;;;;;;;8.02;5.28;;;333.70;2329.60;;;;;;4884999;29;20463;-81
2022/05/01 01:11:37;;;;;;;8.48;4.88;;;333.60;2329.60;;;;;;4884291;29;20040;-81
2022/05/01 01:14:13;;;;;;;7.05;4.45;;;333.60;2329.60;;;;;;4884478;29;20382;-80
2022/05/01 01:16:44;;;;;;;6.18;3.58;;;333.60;2329.60;;;;;;4884609;29;20033;-79
2022/05/01 01:19:10;;;;;;;8.95;4.10;;;333.20;2329.60;;;;;;4884809;29;20505;-80
2022/05/01 01:21:36;;;;;;;6.82;4.53;;;333.40;2329.60;;;;;;4884312;29;20044;-81
2022/05/01 01:24:06;;;;;;;11.65;4.97;;;333.50;2329.60;;;;;;4884533;29;20032;-81
2022/05/01 01:26:34;;;;;;;8.25;5.47;;;333.50;2329.60;;;;;;4884478;29;20028;-80
2022/05/01 01:29:01;;;;;;;9.10;5.85;;;333.40;2329.60;;;;;;4895113;29;20032;-80
2022/05/01 01:34:36;;;;;;;7.53;5.30;;;333.40;2329.60;;;;;;4860705;29;20030;-79
2022/05/01 01:37:04;;;;;;;11.68;6.78;;;333.40;2329.60;;;;;;4893617;29;20570;-81
2022/05/01 01:39:30;;;;;;;13.75;9.25;;;333.40;2329.60;;;;;;4902648;29;20025;-79
2022/05/01 01:41:57;;;;;;;13.75;9.48;;;333.40;2329.60;;;;;;4902984;29;20470;-80
2022/05/01 01:44:25;;;;;;;22.00;13.27;;;333.30;2329.60;;;;;;4919207;29;20031;-82
2022/05/01 01:46:51;;;;;;;24.23;14.50;;;333.10;2329.60;;;;;;4902318;29;20601;-82
2022/05/01 01:49:17;;;;;;;24.27;14.25;;;333.10;2329.60;;;;;;4918222;29;20390;-82
2022/05/01 01:51:43;;;;;;;14.55;8.88;;;333.10;2329.60;;;;;;4918294;29;20025;-81
2022/05/01 01:54:09;;;;;;;11.85;6.95;;;333.20;2329.60;;;;;;4918352;29;20032;-82
2022/05/01 01:56:36;;;;;;;14.00;8.13;;;333.10;2329.60;;;;;;4908033;29;20033;-80
2022/05/01 01:59:02;;;;;;;14.23;9.25;;;332.80;2329.60;;;;;;4883898;29;20501;-80
2022/05/01 02:01:30;;;;;;;14.30;7.28;;;332.80;2329.60;;;;;;4867963;29;20071;-82
2022/05/01 02:03:56;;;;;;;11.65;6.72;;;333.00;2329.60;;;;;;4899140;29;20542;-79
2022/05/01 02:06:26;;;;;;;10.45;6.10;;;333.00;2329.60;;;;;;4882495;29;20039;-81
2022/05/01 02:09:06;;;;;;;11.98;6.30;;;333.00;2329.60;;;;;;4884269;29;20493;-79
2022/05/01 02:11:36;;;;;;;13.38;6.13;;;332.80;2329.60;;;;;;4906930;29;20036;-81
2022/05/01 02:14:03;;;;;;;14.07;7.85;;;332.90;2329.60;;;;;;4897476;29;20021;-78
2022/05/01 02:16:29;;;;;;;15.82;7.60;;;332.90;2329.60;;;;;;4882971;29;20386;-78
2022/05/01 02:18:56;;;;;;;13.57;6.20;;;332.80;2329.60;;;;;;4882588;29;20029;-80
2022/05/01 02:21:40;;;;;;;11.25;6.25;;;332.80;2329.60;;;;;;4883272;29;20033;-80
2022/05/01 02:24:16;;;;;;;11.27;5.70;;;332.90;2329.60;;;;;;4882857;29;20043;-79
2022/05/01 02:26:46;;;;;;;11.35;6.90;;;332.90;2329.60;;;;;;4883255;29;20036;-81
2022/05/01 02:29:13;;;;;;;7.93;5.15;;;308.10;2304.00;;;;;;4883220;29;20120;-79
2022/05/01 02:31:43;;;;;;;12.70;6.53;;;308.00;2304.00;;;;;;4882943;29;20040;-80
2022/05/01 02:34:11;;;;;;;12.73;6.32;;;307.90;2304.00;;;;;;4892994;29;20028;-83
2022/05/01 02:36:39;;;;;;;14.98;7.78;;;307.80;2304.00;;;;;;4917787;29;20056;-82
2022/05/01 02:39:06;;;;;;;12.10;7.88;;;307.90;2304.00;;;;;;4907864;29;20048;-82
2022/05/01 02:41:34;;;;;;;12.57;7.50;;;307.80;2304.00;;;;;;4895943;29;20036;-80
2022/05/01 02:44:01;;;;;;;12.10;6.88;;;307.80;2304.00;;;;;;4901480;29;20024;-79
2022/05/01 02:46:29;;;;;;;12.95;7.15;;;307.90;2304.00;;;;;;4901094;29;20028;-80
2022/05/01 02:48:55;;;;;;;12.98;7.28;;;308.00;2304.00;;;;;;4901567;29;20028;-81
2022/05/01 02:51:22;;;;;;;13.35;7.38;;;307.80;2304.00;;;;;;4916838;29;20035;-78
2022/05/01 02:53:48;;;;;;;13.02;7.28;;;308.10;2304.00;;;;;;4916451;29;20096;-83
2022/05/01 02:56:14;;;;;;;12.25;6.75;;;307.80;2304.00;;;;;;4916940;29;20028;-79
2022/05/01 02:58:41;;;;;;;12.35;7.15;;;307.70;2304.00;;;;;;4899814;29;20025;-82
2022/05/01 03:01:10;;;;;;;12.63;7.30;;;307.60;2304.00;;;;;;4901384;29;20462;-80
2022/05/01 03:03:42;;;;;;;12.18;6.63;;;307.50;2304.00;;;;;;4883895;29;20048;-82
2022/05/01 03:06:08;;;;;;;10.80;6.55;;;307.50;2304.00;;;;;;4881892;29;20028;-78
2022/05/01 03:08:34;;;;;;;13.88;6.78;;;307.60;2304.00;;;;;;4882615;29;20025;-78
2022/05/01 03:11:19;;;;;;;11.80;6.35;;;307.60;2304.00;;;;;;4882630;29;20029;-81
2022/05/01 03:13:45;;;;;;;13.60;6.65;;;307.80;2304.00;;;;;;4882263;29;20036;-76
2022/05/01 03:16:11;;;;;;;11.23;6.45;;;307.90;2304.00;;;;;;4882187;29;20031;-78
2022/05/01 03:24:19;;;;;;;14.48;7.82;;;307.90;2304.00;;;;;;4899411;29;20093;-79
2022/05/01 03:26:47;;;;;;;12.05;7.38;;;307.90;2304.00;;;;;;4881446;29;20085;-81
2022/05/01 03:29:32;;;;;;;;;;;;;;;;;;;;;
2022/05/01 03:36:03;;;;;;;10.65;6.28;;;307.30;2304.00;;;;;;4902130;29;20024;-80
2022/05/01 03:38:42;;;;;;;12.20;7.68;;;307.30;2304.00;;;;;;4915127;29;20149;-77
2022/05/01 03:41:26;;;;;;;14.98;8.80;;;307.40;2304.00;;;;;;4910915;29;20036;-80
2022/05/01 03:44:45;;;;;;;15.57;9.57;;;307.40;2304.00;;;;;;4916417;29;20055;-81
2022/05/01 03:47:24;;;;;;;13.00;8.88;;;307.30;2304.00;;;;;;4916078;29;20067;-81
2022/05/01 03:50:04;;;;;;;17.73;9.65;;;307.30;2304.00;;;;;;4916485;29;20024;-81
2022/05/01 03:52:30;;;;;;;14.55;8.55;;;307.30;2304.00;;;;;;4900359;29;20083;-82
2022/05/01 03:54:59;;;;;;;13.70;8.88;;;307.40;2304.00;;;;;;4900588;29;20043;-82
2022/05/01 03:57:31;;;;;;;13.32;8.23;;;307.20;2304.00;;;;;;4900265;29;20479;-81
2022/05/01 04:00:01;;;;;;;13.30;8.25;;;307.40;2304.00;;;;;;4900876;29;20470;-78
2022/05/01 04:02:27;;;;;;;10.88;7.50;;;307.60;2304.00;;;;;;4900110;29;20063;-77
2022/05/01 04:04:54;;;;;;;12.73;7.00;;;307.60;2304.00;;;;;;4900753;29;20493;-82
2022/05/01 04:07:20;;;;;;;14.40;7.45;;;307.20;2304.00;;;;;;4899942;29;20024;-81
2022/05/01 04:09:52;;;;;;;16.38;7.85;;;282.50;2278.40;;;;;;4900062;29;20067;-79
2022/05/01 04:12:21;;;;;;;14.13;6.85;;;307.30;2304.00;;;;;;4900658;29;20474;-78
2022/05/01 04:14:47;;;;;;;13.57;8.50;;;307.60;2304.00;;;;;;4900183;29;20075;-78
2022/05/01 04:17:22;;;;;;;14.07;8.50;;;307.60;2304.00;;;;;;4900059;29;20036;-80
2022/05/01 04:19:57;;;;;;;11.35;7.20;;;307.80;2304.00;;;;;;4899239;29;20039;-79
2022/05/01 04:22:24;;;;;;;13.85;7.32;;;307.80;2304.00;;;;;;4899971;29;20094;-79
2022/05/01 04:24:50;;;;;;;10.52;6.93;;;307.70;2304.00;;;;;;4915546;29;20035;-78
2022/05/01 04:27:16;;;;;;;14.73;7.03;;;307.40;2304.00;;;;;;4900229;29;20028;-81
2022/05/01 04:29:43;;;;;;;11.57;7.53;;;307.40;2304.00;;;;;;4899762;29;20035;-82
2022/05/01 04:32:10;;;;;;;14.63;7.85;;;307.50;2304.00;;;;;;4900080;29;20036;-82
2022/05/01 04:41:36;;;;;;;13.70;8.18;;;307.20;2304.00;;;;;;4821251;29;20050;-79
2022/05/01 04:44:03;;;;;;;14.95;9.48;;;307.30;2304.00;;;;;;4822081;29;20125;-81
2022/05/01 04:46:47;;;;;;;22.77;13.57;;;307.30;2304.00;;;;;;4852008;29;20673;-80
2022/05/01 04:53:16;;;;;;;;;;;;;;;;;;;;;
2022/05/01 04:55:52;;;;;;;20.52;12.57;;;307.60;2304.00;;;;;;4910394;29;20083;-81
2022/05/01 04:58:27;;;;;;;20.92;11.57;;;307.70;2304.00;;;;;;4939417;29;20024;-81
2022/05/01 05:02:03;;;;;;;20.05;12.20;;;307.60;2304.00;;;;;;4858936;29;20052;-81
2022/05/01 05:04:51;;;;;;;15.77;10.82;;;307.60;2304.00;;;;;;4886629;29;20041;-80
2022/05/01 05:11:02;;;;;;;14.93;8.40;;;307.60;2304.00;;;;;;4897408;29;20096;-80
2022/05/01 05:13:58;;;;;;;13.48;8.48;;;307.60;2304.00;;;;;;4896686;29;20045;-83
2022/05/01 05:16:29;;;;;;;11.27;7.18;;;308.00;2304.00;;;;;;4880095;29;20041;-79
2022/05/01 05:19:09;;;;;;;14.30;7.82;;;308.00;2304.00;;;;;;4896964;29;20035;-78
2022/05/01 05:21:36;;;;;;;12.93;8.20;;;332.80;2329.60;;;;;;4917654;29;20028;-81
2022/05/01 05:24:02;;;;;;;13.65;8.65;;;332.80;2329.60;;;;;;4918752;29;20031;-80
2022/05/01 05:26:27;;;;;;;15.45;9.70;;;332.90;2329.60;;;;;;4918630;29;20032;-80
2022/05/01 05:28:54;;;;;;;12.90;7.40;;;332.80;2329.60;;;;;;4918645;29;20088;-81
2022/05/01 05:31:22;;;;;;;15.43;8.07;;;332.80;2329.60;;;;;;4919053;29;20097;-78
2022/05/01 05:33:48;;;;;;;8.82;6.65;;;333.00;2329.60;;;;;;4918209;29;20030;-80
2022/05/01 05:36:14;;;;;;;8.65;5.93;;;333.20;2329.60;;;;;;4919086;29;20386;-81
2022/05/01 05:38:46;;;;;;;9.05;5.65;;;333.20;2329.60;;;;;;4918176;29;20439;-80
2022/05/01 05:41:12;;;;;;;6.72;5.15;;;333.20;2329.60;;;;;;4918636;29;20032;-83
2022/05/01 05:43:41;;;;;;;6.78;4.50;;;333.20;2329.60;;;;;;4919255;29;20453;-80
2022/05/01 05:46:10;;;;;;;10.30;5.53;;;333.10;2329.60;;;;;;4917961;29;20032;-79
2022/05/01 05:48:37;;;;;;;8.88;5.72;;;333.10;2329.60;;;;;;4918924;29;20032;-78
2022/05/01 05:51:04;;;;;;;8.50;4.85;;;333.30;2329.60;;;;;;4918192;29;20028;-80
2022/05/01 05:53:30;;;;;;;6.72;4.78;;;333.50;2329.60;;;;;;4918536;29;20024;-79
2022/05/01 05:55:59;;;;;;;8.70;4.40;;;333.60;2329.60;;;;;;4917161;29;20034;-81
2022/05/01 05:58:28;;;;;;;8.73;4.95;;;358.70;2329.60;;;;;;4918793;29;20081;-82
2022/05/01 06:00:55;;;;;;;8.85;6.13;;;358.40;2329.60;;;;;;4913081;29;20100;-79
2022/05/01 06:03:24;;;;;;;9.65;6.20;;;333.70;2329.60;;;;;;4884279;29;20029;-80
2022/05/01 06:05:53;;;;;;;11.10;6.10;;;358.70;2329.60;;;;;;4884498;29;20037;-80
2022/05/01 06:08:19;;;;;;;11.25;5.55;;;358.90;2329.60;;;;;;4917904;29;20024;-80
2022/05/01 06:10:48;;;;;;;11.18;5.65;;;359.00;2329.60;;;;;;4917607;29;20028;-82
2022/05/01 06:13:14;;;;;;;7.53;5.68;;;359.20;2329.60;;;;;;4918477;29;20035;-80
2022/05/01 06:15:43;;;;;;;7.78;5.70;;;359.20;2329.60;;;;;;4917677;29;20032;-80
2022/05/01 06:18:15;;;;;;;9.13;7.03;;;384.00;2329.60;;;;;;4901814;29;20032;-82
2022/05/01 06:20:48;;;;;;;9.90;5.50;;;384.30;2329.60;;;;;;4884013;29;20028;-80
2022/05/01 06:23:14;;;;;;;7.53;5.63;;;384.40;2329.60;;;;;;4883185;29;20051;-83
2022/05/01 06:25:43;;;;;;;10.85;6.35;;;384.40;2329.60;;;;;;4883737;29;20032;-79
2022/05/01 06:28:10;;;;;;;9.73;6.60;;;384.70;2329.60;;;;;;4882511;29;20467;-80
2022/05/01 06:30:39;;;;;;;9.68;5.78;;;384.80;2329.60;;;;;;4883564;29;20068;-80
2022/05/01 06:33:10;;;;;;;11.25;6.22;;;409.70;2355.20;;;;;;4886079;29;20498;-80
2022/05/01 06:35:40;;;;;;;8.10;5.22;;;409.80;2355.20;;;;;;4917795;29;20070;-79
2022/05/01 06:38:07;;;;;;;10.52;4.93;;;409.90;2355.20;;;;;;4917133;29;20084;-80
2022/05/01 06:40:35;;;;;;;9.27;5.82;;;410.00;2355.20;;;;;;4917783;29;20040;-81
2022/05/01 06:43:10;;;;;;;12.70;6.38;;;410.20;2355.20;;;;;;4917478;29;20028;-81
2022/05/01 06:45:36;;;;;;;8.55;5.53;;;410.30;2355.20;;;;;;4901213;29;20032;-80
2022/05/01 06:48:03;;;;;;;6.18;4.13;;;410.50;2355.20;;;;;;4917811;29;20092;-80
2022/05/01 06:50:31;;;;;;;6.60;4.47;;;435.20;2355.20;;;;;;4900491;29;20127;-81
2022/05/01 06:52:57;;;;;;;6.13;4.97;;;435.30;2355.20;;;;;;4901683;29;20541;-79
2022/05/01 06:55:25;;;;;;;7.57;4.85;;;435.50;2355.20;;;;;;4916778;29;20036;-78
2022/05/01 06:57:53;;;;;;;10.80;6.03;;;435.60;2355.20;;;;;;4918418;29;20084;-82
2022/05/01 07:00:20;;;;;;;5.47;4.07;;;435.70;2355.20;;;;;;4916525;29;20055;-81
2022/05/01 07:02:47;;;;;;;7.47;4.63;;;435.80;2355.20;;;;;;4916842;29;20088;-81
2022/05/01 07:05:13;;;;;;;6.82;4.75;;;436.00;2355.20;;;;;;4916366;29;20119;-78
2022/05/01 07:07:39;;;;;;;7.47;4.57;;;436.10;2355.20;;;;;;4917267;29;20120;-79
2022/05/01 07:10:06;;;;;;;8.40;4.57;;;460.90;2304.00;;;;;;4917574;29;20059;-80
2022/05/01 07:12:32;;;;;;;7.43;4.03;;;460.90;2252.80;;;;;;4916810;29;20039;-79
2022/05/01 07:14:58;;;;;;;5.28;3.88;;;461.10;2252.80;;;;;;4918172;29;20028;-81
2022/05/01 07:17:24;;;;;;;7.25;4.43;;;461.10;2227.20;;;;;;4914966;29;20028;-79
2022/05/01 07:19:50;;;;;;;7.32;4.35;;;461.30;2252.80;;;;;;4882187;29;20522;-78
2022/05/01 07:22:19;;;;;;;7.38;4.20;;;461.40;2227.20;;;;;;4882202;29;20040;-80
2022/05/01 07:24:45;;;;;;;7.15;4.47;;;461.50;2201.60;;;;;;4881079;29;20028;-79
2022/05/01 07:27:10;;;;;;;6.82;4.47;;;461.70;2201.60;;;;;;4899157;29;20364;-79
2022/05/01 07:29:36;;;;;;;6.25;4.88;;;486.50;2201.60;;;;;;4899109;29;20378;-79
2022/05/01 07:32:03;;;;;;;9.20;3.97;;;486.50;2150.40;;;;;;4898664;29;20036;-79
2022/05/01 07:34:29;;;;;;;6.15;3.85;;;486.60;2150.40;;;;;;4916832;29;20356;-79
2022/05/01 07:36:55;;;;;;;5.85;4.00;;;486.70;2124.80;;;;;;4918196;29;20044;-79
2022/05/01 07:39:20;;;;;;;5.35;3.72;;;486.70;2150.40;;;;;;4919364;29;20246;-80
2022/05/01 07:41:46;;;;;;;6.45;3.85;;;486.70;2099.20;;;;;;4919593;29;20434;-80
2022/05/01 07:44:12;;;;;;;5.70;3.80;;;486.70;2099.20;;;;;;4916329;29;20435;-79
2022/05/01 07:46:41;;;;;;;6.57;4.30;;;486.80;2099.20;;;;;;4916410;29;20024;-77
2022/05/01 07:49:08;;;;;;;6.97;5.03;;;487.00;2073.60;;;;;;4916712;29;20036;-80
2022/05/01 07:51:34;;;;;;;10.05;4.88;;;487.10;2073.60;;;;;;4917928;29;20032;-81
2022/05/01 07:54:01;;;;;;;6.10;4.10;;;487.00;2073.60;;;;;;4917608;29;20120;-81
2022/05/01 07:56:27;;;;;;;7.63;4.88;;;487.30;2073.60;;;;;;4916615;29;20402;-78
2022/05/01 07:58:53;;;;;;;16.90;7.90;;;487.20;2048.00;;;;;;4900667;29;20035;-80
2022/05/01 08:01:20;;;;;;;9.02;6.05;;;512.60;2048.00;;;;;;4915743;29;20055;-78
2022/05/01 08:06:30;;;;;;;6.13;3.53;;;512.40;2022.40;;;;;;4917412;29;20084;-76
2022/05/01 08:08:56;;;;;;;7.03;4.03;;;512.50;1945.60;;;;;;4900606;29;20032;-76
2022/05/01 08:11:22;;;;;;;8.18;3.90;;;512.50;1971.20;;;;;;4916328;29;20371;-78
2022/05/01 08:13:48;;;;;;;6.40;4.30;;;512.70;1945.60;;;;;;4916167;29;20028;-78
2022/05/01 08:16:14;;;;;;;5.85;3.95;;;512.80;1945.60;;;;;;4906552;29;20390;-81
2022/05/01 08:21:24;;;;;;;5.25;3.65;;;512.90;1920.00;;;;;;4898034;29;20399;-78
2022/05/01 08:23:52;;;;;;;6.25;4.72;;;512.70;1920.00;;;;;;4898533;29;20028;-77
2022/05/01 08:26:18;;;;;;;5.72;3.70;;;512.90;1945.60;;;;;;4881707;29;20024;-78
2022/05/01 08:28:45;;;;;;;5.53;3.80;;;537.60;1945.60;;;;;;4881394;29;20083;-77
2022/05/01 08:31:11;;;;;;;5.57;3.75;;;537.70;1945.60;;;;;;4881665;29;20514;-77
2022/05/01 08:33:38;;;;;;;7.88;4.10;;;537.90;1945.60;;;;;;4897189;29;20431;-77
2022/05/01 08:36:05;;;;;;;5.72;3.80;;;538.00;1920.00;;;;;;4881478;29;20052;-74
2022/05/01 08:38:31;;;;;;;5.85;3.90;;;537.90;1920.00;;;;;;4898344;29;20032;-79
2022/05/01 08:40:58;;;;;;;6.22;3.83;;;538.00;1920.00;;;;;;4901526;29;20028;-77
2022/05/01 08:43:25;;;;;;;5.05;3.45;;;538.20;1920.00;;;;;;4936100;29;20403;-74
2022/05/01 08:45:53;;;;;;;5.70;3.90;;;538.30;1894.40;;;;;;4919008;29;20032;-76
2022/05/01 08:48:29;;;;;;;8.05;4.07;;;538.30;1894.40;;;;;;4906490;29;20466;-75
2022/05/01 08:50:56;;;;;;;5.95;3.92;;;538.40;1920.00;;;;;;4916245;29;20032;-76
2022/05/01 08:53:23;;;;;;;5.32;3.33;;;538.50;1894.40;;;;;;4898659;29;20067;-76
2022/05/01 08:55:50;;;;;;;6.57;4.38;;;538.40;1843.20;;;;;;4918169;29;20032;-76
2022/05/01 08:58:16;;;;;;;8.10;5.32;;;538.50;1843.20;;;;;;4903769;29;20071;-77
2022/05/01 09:00:44;;;;;;;9.63;4.95;;;563.40;1868.80;;;;;;4919070;29;20028;-77
2022/05/01 09:03:11;;;;;;;7.70;5.45;;;563.40;1894.40;;;;;;4920534;29;20024;-75
2022/05/01 09:05:36;;;;;;;8.45;6.10;;;563.60;1894.40;;;;;;4903803;29;20062;-75
2022/05/01 09:08:02;;;;;;;10.07;5.93;;;563.80;1868.80;;;;;;4903658;29;20439;-74
2022/05/01 09:10:32;;;;;;;11.43;5.35;;;563.80;1843.20;;;;;;4919039;29;20035;-74
2022/05/01 09:12:58;;;;;;;9.55;5.57;;;564.10;1843.20;;;;;;4903496;29;20411;-76
2022/05/01 09:15:30;;;;;;;8.90;4.05;;;564.10;1817.60;;;;;;4902856;29;20092;-75
2022/05/01 09:18:08;;;;;;;6.25;4.35;;;588.80;1817.60;;;;;;4903239;29;20038;-77
2022/05/01 09:20:38;;;;;;;7.78;5.38;;;589.10;1817.60;;;;;;4920624;29;20024;-78
2022/05/01 09:23:05;;;;;;;7.47;5.40;;;589.10;1817.60;;;;;;4903312;29;20389;-78
2022/05/01 09:25:32;;;;;;;7.88;4.43;;;589.20;1792.00;;;;;;4903603;29;20386;-76
2022/05/01 09:27:59;;;;;;;7.47;4.50;;;589.30;1792.00;;;;;;4903103;29;20060;-76
2022/05/01 09:30:38;;;;;;;11.50;6.70;;;589.40;1766.40;;;;;;4919160;29;20028;-79
2022/05/01 09:33:04;;;;;;;9.25;6.50;;;589.50;1766.40;;;;;;4903370;29;20040;-78
2022/05/01 09:35:35;;;;;;;6.63;4.78;;;589.60;1792.00;;;;;;4919030;29;20032;-78
2022/05/01 09:38:13;;;;;;;6.82;5.00;;;589.60;1766.40;;;;;;4902956;29;20460;-79
2022/05/01 09:40:39;;;;;;;9.05;5.55;;;589.60;1740.80;;;;;;4918835;29;20024;-79
2022/05/01 09:43:05;;;;;;;14.75;12.18;;;589.50;1766.40;;;;;;4903032;29;20038;-78
2022/05/01 09:45:32;;;;;;;11.23;9.00;;;589.70;1740.80;;;;;;4902414;29;20028;-79
2022/05/01 09:47:58;;;;;;;7.75;4.95;;;614.40;1740.80;;;;;;4902937;29;20446;-78
2022/05/01 09:50:42;;;;;;;6.57;4.30;;;614.60;1715.20;;;;;;4919672;29;20083;-80
2022/05/01 09:53:09;;;;;;;5.10;4.00;;;614.60;1689.60;;;;;;4902823;29;20071;-78
2022/05/01 09:55:35;;;;;;;7.28;5.35;;;614.80;1689.60;;;;;;4925214;29;20047;-77
2022/05/01 09:58:14;;;;;;;9.27;6.68;;;615.10;1638.40;;;;;;4912951;29;20032;-78
2022/05/01 10:00:41;;;;;;;7.70;5.35;;;614.60;1664.00;;;;;;4902578;29;20442;-79
2022/05/01 10:03:33;;;;;;;7.05;4.90;;;615.00;1689.60;;;;;;4920061;29;20060;-77
2022/05/01 10:06:00;;;;;;;7.32;4.30;;;615.30;1664.00;;;;;;4918969;29;20497;-77
2022/05/01 10:08:26;;;;;;;6.40;4.65;;;615.30;1638.40;;;;;;4902747;29;20476;-80
2022/05/01 10:10:58;;;;;;;7.03;4.75;;;640.20;1638.40;;;;;;4902725;29;20036;-78
2022/05/01 10:13:27;;;;;;;7.25;4.95;;;640.30;1638.40;;;;;;4902444;29;20059;-77
2022/05/01 10:15:54;;;;;;;6.78;5.30;;;640.10;1587.20;;;;;;4918856;29;20040;-78
2022/05/01 10:18:23;;;;;;;5.00;3.47;;;640.40;1561.60;;;;;;4924288;29;20032;-77
2022/05/01 10:20:49;;;;;;;7.50;4.57;;;615.20;1561.60;;;;;;4921387;29;20024;-79
2022/05/01 10:23:19;;;;;;;7.63;4.32;;;640.00;1587.20;;;;;;4902627;29;20466;-79
2022/05/01 10:25:52;;;;;;;7.20;3.90;;;640.20;1612.80;;;;;;4918363;29;20024;-81
2022/05/01 10:28:33;;;;;;;14.50;5.20;;;640.50;1587.20;;;;;;4902371;29;20470;-79
2022/05/01 10:34:38;;;;;;;6.32;4.78;;;665.70;1536.00;;;;;;4918955;29;20054;-80
2022/05/01 10:37:47;;;;;;;6.20;4.70;;;665.70;1510.40;;;;;;4919342;29;20036;-79
2022/05/01 10:40:13;;;;;;;6.57;4.30;;;665.70;1510.40;;;;;;4902089;29;20561;-81
2022/05/01 10:42:46;;;;;;;6.38;4.28;;;665.90;1510.40;;;;;;4918694;29;20470;-76
2022/05/01 10:45:21;;;;;;;9.20;3.65;;;666.30;1510.40;;;;;;4902142;29;20032;-78
2022/05/01 10:47:49;;;;;;;18.52;4.90;;;666.10;1459.20;;;;;;4901692;29;20028;-80
2022/05/01 10:50:24;;;;;;;6.75;5.00;;;665.90;1484.80;;;;;;4919036;29;20107;-77
2022/05/01 10:53:13;;;;;;;7.03;3.83;;;665.60;1510.40;;;;;;4917683;29;20039;-76
2022/05/01 10:55:48;;;;;;;5.03;3.33;;;665.90;1484.80;;;;;;4901336;29;20493;-79
2022/05/01 10:58:27;;;;;;;12.73;4.60;;;666.20;1459.20;;;;;;4901050;29;20133;-78
2022/05/01 11:00:55;;;;;;;6.40;4.00;;;666.40;1459.20;;;;;;4900726;29;20052;-77
2022/05/01 11:03:26;;;;;;;5.57;3.17;;;666.50;1459.20;;;;;;4917306;29;20028;-78
2022/05/01 11:06:04;;;;;;;5.88;3.90;;;691.20;1459.20;;;;;;4917322;29;20028;-77
2022/05/01 11:08:33;;;;;;;6.85;4.03;;;691.60;1459.20;;;;;;4901407;29;20087;-78
2022/05/01 11:11:00;;;;;;;5.72;4.03;;;691.60;1459.20;;;;;;4917715;29;20060;-78
2022/05/01 11:13:31;;;;;;;4.82;3.55;;;691.60;1433.60;;;;;;4918766;29;20032;-76
2022/05/01 11:15:57;;;;;;;6.25;3.97;;;691.30;1433.60;;;;;;4916315;29;20079;-79
2022/05/01 11:18:33;;;;;;;8.73;5.60;;;691.60;1433.60;;;;;;4919531;29;20106;-78
2022/05/01 11:21:24;;;;;;;6.35;4.03;;;691.80;1408.00;;;;;;4891693;29;20386;-76
2022/05/01 11:24:04;;;;;;;6.65;3.58;;;691.90;1433.60;;;;;;4899102;29;20045;-76
2022/05/01 11:26:32;;;;;;;5.20;3.88;;;716.80;1433.60;;;;;;4882244;29;20032;-79
2022/05/01 11:29:13;;;;;;;7.10;4.70;;;716.90;1433.60;;;;;;4897841;29;20036;-79
2022/05/01 11:31:42;;;;;;;8.15;4.80;;;716.90;1408.00;;;;;;4895882;29;20457;-77
2022/05/01 11:34:21;;;;;;;13.25;7.72;;;716.80;1433.60;;;;;;4916577;29;20040;-79
2022/05/01 11:36:50;;;;;;;8.40;6.70;;;691.50;1433.60;;;;;;4916844;29;20033;-82
2022/05/01 11:39:16;;;;;;;10.00;5.82;;;692.10;1433.60;;;;;;4916891;29;20034;-81
2022/05/01 11:41:42;;;;;;;10.93;7.97;;;716.90;1408.00;;;;;;4900758;29;20467;-79
2022/05/01 11:44:21;;;;;;;8.82;5.97;;;717.00;1433.60;;;;;;4881909;29;20064;-80
2022/05/01 11:46:47;;;;;;;5.53;4.03;;;717.00;1408.00;;;;;;4899004;29;20036;-80
2022/05/01 11:49:13;;;;;;;6.15;4.20;;;691.20;1408.00;;;;;;4882010;29;20033;-80
2022/05/01 11:51:39;;;;;;;7.07;5.63;;;691.30;1408.00;;;;;;4897618;29;20180;-78
2022/05/01 11:54:07;;;;;;;6.82;4.40;;;692.00;1408.00;;;;;;4882168;29;20028;-81
2022/05/01 12:04:47;;;;;;;6.70;4.22;;;716.90;1408.00;;;;;;4917069;29;20447;-78
2022/05/01 12:07:15;;;;;;;18.83;14.25;;;717.40;1408.00;;;;;;4916178;29;20032;-81
2022/05/01 12:09:44;;;;;;;10.70;7.22;;;717.50;1408.00;;;;;;4917682;29;20024;-79
2022/05/01 12:12:12;;;;;;;8.55;5.55;;;742.50;1408.00;;;;;;4899980;29;20127;-78
2022/05/01 12:14:39;;;;;;;6.35;4.40;;;742.50;1408.00;;;;;;4900622;29;20088;-81
2022/05/01 12:17:07;;;;;;;9.15;5.55;;;742.70;1382.40;;;;;;4900667;29;20067;-76
2022/05/01 12:19:40;;;;;;;6.35;3.85;;;742.60;1408.00;;;;;;4900384;29;20032;-79
2022/05/01 12:22:07;;;;;;;6.75;4.45;;;742.80;1433.60;;;;;;4900229;29;20138;-79
2022/05/01 12:24:35;;;;;;;7.97;5.35;;;742.90;1408.00;;;;;;4900680;29;20034;-79
2022/05/01 12:27:01;;;;;;;8.70;5.43;;;743.00;1408.00;;;;;;4900216;29;20028;-78
2022/05/01 12:29:28;;;;;;;6.80;4.07;;;743.00;1382.40;;;;;;4902316;29;20105;-78
2022/05/01 12:32:08;;;;;;;7.60;4.65;;;742.80;1356.80;;;;;;4900161;29;20028;-80
2022/05/01 12:35:00;;;;;;;7.28;4.60;;;743.00;1356.80;;;;;;4900598;29;20028;-80
2022/05/01 12:37:37;;;;;;;6.93;4.17;;;742.90;1331.20;;;;;;4910632;29;20040;-77
2022/05/01 12:40:10;;;;;;;7.25;4.18;;;717.40;1356.80;;;;;;4900274;29;20035;-78
2022/05/01 12:45:38;;;;;;;10.38;5.25;;;692.10;1356.80;;;;;;4917682;29;20039;-80
2022/05/01 12:48:08;;;;;;;5.28;3.95;;;716.80;1408.00;;;;;;4900501;29;20394;-79
2022/05/01 12:50:38;;;;;;;7.78;3.63;;;716.80;1356.80;;;;;;4904194;29;20492;-77
2022/05/01 12:53:29;;;;;;;7.50;3.72;;;691.90;1356.80;;;;;;4902058;29;20032;-77
2022/05/01 12:55:56;;;;;;;5.93;4.60;;;691.30;1382.40;;;;;;4900383;29;20028;-78
2022/05/01 12:58:29;;;;;;;6.07;4.00;;;691.30;1408.00;;;;;;4917654;29;20028;-77
2022/05/01 13:00:55;;;;;;;6.40;3.53;;;666.20;1433.60;;;;;;4906185;29;20059;-78
2022/05/01 13:03:29;;;;;;;7.07;3.75;;;666.20;1433.60;;;;;;4918104;29;20463;-80
2022/05/01 13:06:09;;;;;;;7.43;3.63;;;666.10;1433.60;;;;;;4917182;29;20032;-79
2022/05/01 13:08:36;;;;;;;5.15;3.85;;;665.70;1459.20;;;;;;4915550;29;20167;-79
2022/05/01 13:11:17;;;;;;;4.78;3.35;;;640.80;1433.60;;;;;;4915820;29;20498;-79
2022/05/01 13:13:49;;;;;;;5.63;3.85;;;665.70;1459.20;;;;;;4915795;29;20032;-79
2022/05/01 13:16:17;;;;;;;5.00;3.70;;;691.40;1433.60;;;;;;4899692;29;20561;-78
2022/05/01 13:18:44;;;;;;;5.35;3.75;;;716.90;1408.00;;;;;;4917034;29;20024;-79
2022/05/01 13:21:10;;;;;;;7.78;3.67;;;717.40;1382.40;;;;;;4914714;29;20100;-81